createdAt,value
2024-01-11T00:00:05.105Z,605.00
2024-01-11T00:01:05.381Z,607.00
2024-01-11T00:02:05.034Z,610.00
2024-01-11T00:03:04.952Z,611.00
2024-01-11T00:04:04.929Z,608.00
2024-01-11T00:05:04.935Z,609.00
2024-01-11T00:06:04.893Z,607.00
2024-01-11T00:07:04.825Z,608.00
2024-01-11T00:08:04.687Z,608.00
2024-01-11T00:09:04.648Z,607.00
2024-01-11T00:10:04.552Z,605.00
2024-01-11T00:11:04.949Z,603.00
2024-01-11T00:12:04.464Z,602.00
2024-01-11T00:13:04.367Z,602.00
2024-01-11T00:14:04.839Z,599.00
2024-01-11T00:15:04.316Z,599.00
2024-01-11T00:16:04.234Z,599.00
2024-01-11T00:17:04.175Z,598.00
2024-01-11T00:18:04.194Z,598.00
2024-01-11T00:19:04.119Z,598.00
2024-01-11T00:20:03.990Z,599.00
2024-01-11T00:21:03.873Z,600.00
2024-01-11T00:22:03.820Z,600.00
2024-01-11T00:23:03.754Z,600.00
2024-01-11T00:24:03.605Z,601.00
2024-01-11T00:25:03.539Z,602.00
2024-01-11T00:26:03.601Z,604.00
2024-01-11T00:27:03.389Z,602.00
2024-01-11T00:28:03.340Z,601.00
2024-01-11T00:29:03.321Z,601.00
2024-01-11T00:30:03.199Z,600.00
2024-01-11T00:31:03.241Z,599.00
2024-01-11T00:32:03.109Z,597.00
2024-01-11T00:33:03.133Z,596.00
2024-01-11T00:34:03.021Z,597.00
2024-01-11T00:35:02.941Z,597.00
2024-01-11T00:36:02.835Z,597.00
2024-01-11T00:37:02.788Z,596.00
2024-01-11T00:38:02.708Z,594.00
2024-01-11T00:39:02.647Z,594.00
2024-01-11T00:40:02.569Z,596.00
2024-01-11T00:41:02.546Z,598.00
2024-01-11T00:42:02.466Z,599.00
2024-01-11T00:43:02.432Z,598.00
2024-01-11T00:44:02.430Z,597.00
2024-01-11T00:45:02.363Z,599.00
2024-01-11T00:46:02.220Z,600.00
2024-01-11T00:47:02.258Z,600.00
2024-01-11T00:48:02.195Z,597.00
2024-01-11T00:49:02.191Z,597.00
2024-01-11T00:50:02.075Z,596.00
2024-01-11T00:51:01.884Z,595.00
2024-01-11T00:52:01.818Z,593.00
2024-01-11T00:53:01.800Z,593.00
2024-01-11T00:54:01.647Z,592.00
2024-01-11T00:55:01.591Z,590.00
2024-01-11T00:56:01.559Z,588.00
2024-01-11T00:57:01.416Z,586.00
2024-01-11T00:58:01.341Z,588.00
2024-01-11T00:59:01.349Z,588.00
2024-01-11T01:00:01.275Z,588.00
2024-01-11T01:01:01.383Z,589.00
2024-01-11T01:02:01.149Z,586.00
2024-01-11T01:03:01.013Z,587.00
2024-01-11T01:04:00.992Z,585.00
2024-01-11T01:05:00.925Z,586.00
2024-01-11T01:06:00.867Z,584.00
2024-01-11T01:07:00.699Z,584.00
2024-01-11T01:08:00.778Z,585.00
2024-01-11T01:09:00.615Z,586.00
2024-01-11T01:10:00.527Z,586.00
2024-01-11T01:11:00.503Z,585.00
2024-01-11T01:12:00.414Z,586.00
2024-01-11T01:13:00.321Z,586.00
2024-01-11T01:14:00.388Z,584.00
2024-01-11T01:15:00.335Z,585.00
2024-01-11T01:16:00.382Z,587.00
2024-01-11T01:17:00.109Z,585.00
2024-01-11T01:18:00.296Z,586.00
2024-01-11T01:19:00.168Z,588.00
2024-01-11T01:19:59.926Z,588.00
2024-01-11T01:20:59.894Z,590.00
2024-01-11T01:21:59.776Z,590.00
2024-01-11T01:22:59.687Z,589.00
2024-01-11T01:23:59.594Z,589.00
2024-01-11T01:24:59.580Z,589.00
2024-01-11T01:25:59.454Z,589.00
2024-01-11T01:26:59.358Z,588.00
2024-01-11T01:27:59.276Z,589.00
2024-01-11T01:28:59.320Z,588.00
2024-01-11T01:29:59.166Z,586.00
2024-01-11T01:30:59.166Z,584.00
2024-01-11T01:31:59.094Z,584.00
2024-01-11T01:32:59.092Z,587.00
2024-01-11T01:33:59.038Z,589.00
2024-01-11T01:34:58.808Z,590.00
2024-01-11T01:35:58.950Z,590.00
2024-01-11T01:36:58.613Z,592.00
2024-01-11T01:37:58.574Z,594.00
2024-01-11T01:38:58.504Z,594.00
2024-01-11T01:39:58.408Z,595.00
2024-01-11T01:40:58.364Z,592.00
2024-01-11T01:41:58.270Z,592.00
2024-01-11T01:42:58.178Z,591.00
2024-01-11T01:43:58.137Z,590.00
2024-01-11T01:44:58.019Z,589.00
2024-01-11T01:45:57.909Z,588.00
2024-01-11T01:46:57.895Z,589.00
2024-01-11T01:47:57.841Z,588.00
2024-01-11T01:48:57.763Z,587.00
2024-01-11T01:49:57.805Z,588.00
2024-01-11T01:50:57.563Z,588.00
2024-01-11T01:51:57.499Z,588.00
2024-01-11T01:52:57.474Z,587.00
2024-01-11T01:53:57.401Z,586.00
2024-01-11T01:54:57.289Z,585.00
2024-01-11T01:55:57.454Z,585.00
2024-01-11T01:56:57.121Z,585.00
2024-01-11T01:57:57.020Z,585.00
2024-01-11T01:58:56.982Z,584.00
2024-01-11T01:59:56.850Z,582.00
2024-01-11T02:00:56.895Z,581.00
2024-01-11T02:01:56.724Z,581.00
2024-01-11T02:02:56.803Z,580.00
2024-01-11T02:03:56.625Z,579.00
2024-01-11T02:04:56.564Z,580.00
2024-01-11T02:05:56.541Z,581.00
2024-01-11T02:06:56.440Z,583.00
2024-01-11T02:07:56.317Z,584.00
2024-01-11T02:08:56.145Z,586.00
2024-01-11T02:09:56.082Z,582.00
2024-01-11T02:10:56.439Z,580.00
2024-01-11T02:11:55.951Z,582.00
2024-01-11T02:12:55.845Z,585.00
2024-01-11T02:13:55.808Z,585.00
2024-01-11T02:14:55.667Z,584.00
2024-01-11T02:15:55.891Z,583.00
2024-01-11T02:16:55.579Z,583.00
2024-01-11T02:17:55.542Z,583.00
2024-01-11T02:18:55.460Z,581.00
2024-01-11T02:19:55.336Z,581.00
2024-01-11T02:20:55.197Z,581.00
2024-01-11T02:21:55.143Z,580.00
2024-01-11T02:22:55.046Z,582.00
2024-01-11T02:23:55.009Z,580.00
2024-01-11T02:24:54.901Z,579.00
2024-01-11T02:25:54.953Z,577.00
2024-01-11T02:26:54.738Z,578.00
2024-01-11T02:27:54.681Z,578.00
2024-01-11T02:28:54.757Z,579.00
2024-01-11T02:29:54.543Z,578.00
2024-01-11T02:30:54.515Z,577.00
2024-01-11T02:31:54.434Z,576.00
2024-01-11T02:32:54.632Z,575.00
2024-01-11T02:33:54.308Z,575.00
2024-01-11T02:34:54.179Z,577.00
2024-01-11T02:35:54.501Z,577.00
2024-01-11T02:36:54.035Z,576.00
2024-01-11T02:37:53.950Z,575.00
2024-01-11T02:38:53.905Z,573.00
2024-01-11T02:39:53.801Z,576.00
2024-01-11T02:40:53.748Z,578.00
2024-01-11T02:41:53.593Z,580.00
2024-01-11T02:42:53.519Z,582.00
2024-01-11T02:43:53.562Z,581.00
2024-01-11T02:44:53.407Z,579.00
2024-01-11T02:45:53.323Z,580.00
2024-01-11T02:46:53.288Z,579.00
2024-01-11T02:47:53.313Z,579.00
2024-01-11T02:48:53.244Z,578.00
2024-01-11T02:49:53.041Z,577.00
2024-01-11T02:50:52.991Z,577.00
2024-01-11T02:51:52.851Z,575.00
2024-01-11T02:52:52.825Z,573.00
2024-01-11T02:53:52.711Z,575.00
2024-01-11T02:54:52.614Z,576.00
2024-01-11T02:55:52.933Z,577.00
2024-01-11T02:56:52.511Z,575.00
2024-01-11T02:57:52.461Z,573.00
2024-01-11T02:58:52.334Z,572.00
2024-01-11T02:59:52.274Z,571.00
2024-01-11T03:00:52.467Z,570.00
2024-01-11T03:01:52.083Z,569.00
2024-01-11T03:02:52.168Z,568.00
2024-01-11T03:03:52.925Z,570.00
2024-01-11T03:04:51.910Z,572.00
2024-01-11T03:05:51.918Z,571.00
2024-01-11T03:06:51.835Z,571.00
2024-01-11T03:07:51.672Z,569.00
2024-01-11T03:08:51.600Z,568.00
2024-01-11T03:09:51.526Z,567.00
2024-01-11T03:10:51.484Z,568.00
2024-01-11T03:11:51.341Z,567.00
2024-01-11T03:12:51.296Z,565.00
2024-01-11T03:13:51.172Z,564.00
2024-01-11T03:14:51.089Z,561.00
2024-01-11T03:15:51.464Z,561.00
2024-01-11T03:16:50.961Z,562.00
2024-01-11T03:17:50.913Z,561.00
2024-01-11T03:18:50.854Z,562.00
2024-01-11T03:19:50.676Z,560.00
2024-01-11T03:20:50.632Z,561.00
2024-01-11T03:21:50.521Z,562.00
2024-01-11T03:22:50.422Z,562.00
2024-01-11T03:23:50.334Z,565.00
2024-01-11T03:24:50.251Z,563.00
2024-01-11T03:25:50.196Z,563.00
2024-01-11T03:26:50.263Z,562.00
2024-01-11T03:27:50.038Z,561.00
2024-01-11T03:28:49.964Z,563.00
2024-01-11T03:29:49.865Z,563.00
2024-01-11T03:30:49.905Z,564.00
2024-01-11T03:31:49.736Z,565.00
2024-01-11T03:32:49.846Z,566.00
2024-01-11T03:33:49.664Z,564.00
2024-01-11T03:34:49.478Z,565.00
2024-01-11T03:35:49.391Z,563.00
2024-01-11T03:36:49.362Z,565.00
2024-01-11T03:37:49.264Z,567.00
2024-01-11T03:39:49.112Z,568.00
2024-01-11T03:40:49.420Z,566.00
2024-01-11T03:41:48.979Z,564.00
2024-01-11T03:42:48.934Z,565.00
2024-01-11T03:43:48.822Z,566.00
2024-01-11T03:44:48.847Z,568.00
2024-01-11T03:45:48.930Z,567.00
2024-01-11T03:46:48.627Z,566.00
2024-01-11T03:47:48.617Z,565.00
2024-01-11T03:48:48.556Z,562.00
2024-01-11T03:49:48.566Z,562.00
2024-01-11T03:50:48.466Z,561.00
2024-01-11T03:51:48.254Z,560.00
2024-01-11T03:52:48.168Z,560.00
2024-01-11T03:53:48.140Z,561.00
2024-01-11T03:54:48.054Z,561.00
2024-01-11T03:55:47.985Z,560.00
2024-01-11T03:56:47.925Z,559.00
2024-01-11T03:57:47.858Z,560.00
2024-01-11T03:58:47.729Z,560.00
2024-01-11T03:59:47.735Z,559.00
2024-01-11T04:00:47.682Z,558.00
2024-01-11T04:01:47.569Z,559.00
2024-01-11T04:02:47.532Z,559.00
2024-01-11T04:03:47.471Z,561.00
2024-01-11T04:04:47.322Z,561.00
2024-01-11T04:05:47.336Z,560.00
2024-01-11T04:06:47.228Z,560.00
2024-01-11T04:07:47.076Z,560.00
2024-01-11T04:08:47.087Z,560.00
2024-01-11T04:09:46.918Z,559.00
2024-01-11T04:10:46.865Z,560.00
2024-01-11T04:11:46.822Z,559.00
2024-01-11T04:12:46.720Z,560.00
2024-01-11T04:13:46.634Z,563.00
2024-01-11T04:14:46.607Z,562.00
2024-01-11T04:15:46.546Z,563.00
2024-01-11T04:16:46.404Z,566.00
2024-01-11T04:17:46.419Z,567.00
2024-01-11T04:18:46.348Z,568.00
2024-01-11T04:19:46.203Z,568.00
2024-01-11T04:20:46.481Z,567.00
2024-01-11T04:21:46.071Z,566.00
2024-01-11T04:22:46.035Z,568.00
2024-01-11T04:23:45.991Z,570.00
2024-01-11T04:24:45.922Z,570.00
2024-01-11T04:25:45.870Z,568.00
2024-01-11T04:26:45.760Z,566.00
2024-01-11T04:27:52.974Z,549.00
2024-01-11T04:28:52.926Z,554.00
2024-01-11T04:29:52.944Z,552.00
2024-01-11T04:30:53.259Z,552.00
2024-01-11T04:32:00.664Z,550.00
2024-01-11T04:33:00.888Z,551.00
2024-01-11T04:34:00.786Z,552.00
2024-01-11T04:35:00.728Z,551.00
2024-01-11T04:36:00.732Z,550.00
2024-01-11T04:37:00.609Z,547.00
2024-01-11T04:38:00.656Z,546.00
2024-01-11T04:39:00.564Z,547.00
2024-01-11T04:40:00.584Z,548.00
2024-01-11T04:41:00.560Z,548.00
2024-01-11T04:42:00.553Z,547.00
2024-01-11T04:43:00.517Z,546.00
2024-01-11T04:44:00.535Z,545.00
2024-01-11T04:45:00.522Z,542.00
2024-01-11T04:46:00.474Z,542.00
2024-01-11T04:47:00.477Z,542.00
2024-01-11T04:48:00.603Z,544.00
2024-01-11T04:49:00.550Z,544.00
2024-01-11T04:50:00.546Z,543.00
2024-01-11T04:51:00.418Z,544.00
2024-01-11T04:52:00.373Z,546.00
2024-01-11T04:53:00.426Z,545.00
2024-01-11T04:54:00.386Z,546.00
2024-01-11T04:55:00.369Z,547.00
2024-01-11T04:56:00.466Z,546.00
2024-01-11T04:57:00.341Z,546.00
2024-01-11T04:58:00.350Z,545.00
2024-01-11T04:59:00.384Z,546.00
2024-01-11T05:00:03.527Z,549.00
2024-01-11T05:01:00.368Z,550.00
2024-01-11T05:02:00.358Z,550.00
2024-01-11T05:03:00.283Z,553.00
2024-01-11T05:04:00.452Z,553.00
2024-01-11T05:05:00.423Z,551.00
2024-01-11T05:06:00.460Z,551.00
2024-01-11T05:07:00.259Z,552.00
2024-01-11T05:08:00.344Z,550.00
2024-01-11T05:09:00.230Z,549.00
2024-01-11T05:10:00.251Z,547.00
2024-01-11T05:11:00.298Z,544.00
2024-01-11T05:12:00.180Z,541.00
2024-01-11T05:13:00.191Z,539.00
2024-01-11T05:14:00.352Z,539.00
2024-01-11T05:15:00.218Z,541.00
2024-01-11T05:16:00.213Z,543.00
2024-01-11T05:17:00.218Z,542.00
2024-01-11T05:18:00.431Z,542.00
2024-01-11T05:19:00.239Z,545.00
2024-01-11T05:20:00.313Z,545.00
2024-01-11T05:21:00.216Z,543.00
2024-01-11T05:22:00.073Z,543.00
2024-01-11T05:23:00.156Z,544.00
2024-01-11T05:24:00.114Z,540.00
2024-01-11T05:25:00.090Z,538.00
2024-01-11T05:26:00.079Z,538.00
2024-01-11T05:27:00.062Z,540.00
2024-01-11T05:28:00.069Z,539.00
2024-01-11T05:29:00.075Z,539.00
2024-01-11T05:30:00.067Z,537.00
2024-01-11T05:31:00.332Z,537.00
2024-01-11T05:32:00.157Z,536.00
2024-01-11T05:33:00.174Z,535.00
2024-01-11T05:34:00.186Z,537.00
2024-01-11T05:35:00.011Z,539.00
2024-01-11T05:35:59.988Z,540.00
2024-01-11T05:37:01.145Z,543.00
2024-01-11T05:38:00.018Z,544.00
2024-01-11T05:38:59.988Z,545.00
2024-01-11T05:39:59.984Z,544.00
2024-01-11T05:41:00.034Z,545.00
2024-01-11T05:41:59.953Z,545.00
2024-01-11T05:42:59.950Z,543.00
2024-01-11T05:43:59.966Z,543.00
2024-01-11T05:44:59.893Z,542.00
2024-01-11T05:45:59.931Z,541.00
2024-01-11T05:46:59.962Z,542.00
2024-01-11T05:47:59.957Z,541.00
2024-01-11T05:48:59.943Z,540.00
2024-01-11T05:49:59.979Z,537.00
2024-01-11T05:51:00.271Z,536.00
2024-01-11T05:51:59.870Z,534.00
2024-01-11T05:52:59.921Z,535.00
2024-01-11T05:53:59.842Z,534.00
2024-01-11T05:54:59.832Z,534.00
2024-01-11T05:55:59.901Z,535.00
2024-01-11T05:56:59.826Z,537.00
2024-01-11T05:57:59.855Z,536.00
2024-01-11T05:58:59.856Z,537.00
2024-01-11T05:59:59.811Z,539.00
2024-01-11T06:00:59.909Z,538.00
2024-01-11T06:01:59.805Z,538.00
2024-01-11T06:02:59.790Z,539.00
2024-01-11T06:03:59.792Z,540.00
2024-01-11T06:04:59.901Z,540.00
2024-01-11T06:06:00.426Z,541.00
2024-01-11T06:06:59.760Z,547.00
2024-01-11T06:07:59.857Z,547.00
2024-01-11T06:08:59.815Z,546.00
2024-01-11T06:09:59.834Z,547.00
2024-01-11T06:11:00.052Z,549.00
2024-01-11T06:11:59.850Z,549.00
2024-01-11T06:12:59.908Z,548.00
2024-01-11T06:13:59.932Z,548.00
2024-01-11T06:14:59.937Z,549.00
2024-01-11T06:15:59.986Z,550.00
2024-01-11T06:17:00.097Z,550.00
2024-01-11T06:18:00.125Z,548.00
2024-01-11T06:19:00.159Z,546.00
2024-01-11T06:20:00.034Z,546.00
2024-01-11T06:21:00.304Z,545.00
2024-01-11T06:22:00.063Z,545.00
2024-01-11T06:23:00.118Z,544.00
2024-01-11T06:24:00.107Z,544.00
2024-01-11T06:25:00.186Z,546.00
2024-01-11T06:26:00.330Z,547.00
2024-01-11T06:27:00.196Z,547.00
2024-01-11T06:28:00.194Z,545.00
2024-01-11T06:29:00.315Z,546.00
2024-01-11T06:30:00.267Z,547.00
2024-01-11T06:31:00.315Z,548.00
2024-01-11T06:32:00.425Z,548.00
2024-01-11T06:33:00.413Z,548.00
2024-01-11T06:34:00.463Z,550.00
2024-01-11T06:35:00.439Z,548.00
2024-01-11T06:36:00.423Z,549.00
2024-01-11T06:37:00.783Z,546.00
2024-01-11T06:38:00.425Z,545.00
2024-01-11T06:39:00.372Z,545.00
2024-01-11T06:40:00.422Z,548.00
2024-01-11T06:41:00.487Z,549.00
2024-01-11T06:42:00.508Z,549.00
2024-01-11T06:43:00.501Z,549.00
2024-01-11T06:44:02.049Z,549.00
2024-01-11T06:45:00.536Z,625.00
2024-01-11T06:46:00.545Z,619.00
2024-01-11T06:47:00.795Z,628.00
2024-01-11T06:48:00.729Z,645.00
2024-01-11T06:49:00.813Z,647.00
2024-01-11T06:50:00.718Z,659.00
2024-01-11T06:51:02.157Z,665.00
2024-01-11T06:52:00.689Z,799.00
2024-01-11T06:53:00.707Z,838.00
2024-01-11T06:54:00.675Z,890.00
2024-01-11T06:55:00.703Z,910.00
2024-01-11T06:56:00.784Z,983.00
2024-01-11T06:57:00.709Z,976.00
2024-01-11T06:58:00.763Z,1000.00
2024-01-11T06:59:00.839Z,1041.00
2024-01-11T07:00:01.025Z,1072.00
2024-01-11T07:01:00.892Z,1124.00
2024-01-11T07:02:00.977Z,1112.00
2024-01-11T07:03:00.948Z,1102.00
2024-01-11T07:04:01.031Z,1093.00
2024-01-11T07:05:01.085Z,1082.00
2024-01-11T07:06:01.116Z,1069.00
2024-01-11T07:07:01.094Z,1059.00
2024-01-11T07:08:01.118Z,1048.00
2024-01-11T07:09:01.168Z,1035.00
2024-01-11T07:10:01.157Z,1023.00
2024-01-11T07:11:01.190Z,1013.00
2024-01-11T07:12:01.220Z,1003.00
2024-01-11T07:13:01.190Z,994.00
2024-01-11T07:14:01.226Z,987.00
2024-01-11T07:15:01.212Z,981.00
2024-01-11T07:16:01.218Z,976.00
2024-01-11T07:17:01.302Z,971.00
2024-01-11T07:18:01.595Z,963.00
2024-01-11T07:19:01.349Z,956.00
2024-01-11T07:20:01.337Z,951.00
2024-01-11T07:21:01.244Z,945.00
2024-01-11T07:22:01.281Z,942.00
2024-01-11T07:23:01.325Z,939.00
2024-01-11T07:24:01.304Z,934.00
2024-01-11T07:25:01.346Z,928.00
2024-01-11T07:26:01.343Z,921.00
2024-01-11T07:27:01.798Z,914.00
2024-01-11T07:28:01.401Z,908.00
2024-01-11T07:29:01.415Z,904.00
2024-01-11T07:30:01.411Z,900.00
2024-01-11T07:31:01.493Z,895.00
2024-01-11T07:32:02.589Z,887.00
2024-01-11T07:33:01.569Z,886.00
2024-01-11T07:34:01.505Z,883.00
2024-01-11T07:35:01.429Z,881.00
2024-01-11T07:36:01.552Z,879.00
2024-01-11T07:37:01.401Z,876.00
2024-01-11T07:38:01.394Z,871.00
2024-01-11T07:39:01.406Z,868.00
2024-01-11T07:40:01.385Z,865.00
2024-01-11T07:41:01.374Z,861.00
2024-01-11T07:42:01.355Z,858.00
2024-01-11T07:43:01.342Z,856.00
2024-01-11T07:44:01.402Z,851.00
2024-01-11T07:45:01.309Z,848.00
2024-01-11T07:46:01.308Z,843.00
2024-01-11T07:47:02.453Z,837.00
2024-01-11T07:48:01.394Z,836.00
2024-01-11T07:49:01.372Z,834.00
2024-01-11T07:50:01.357Z,831.00
2024-01-11T07:51:01.353Z,825.00
2024-01-11T07:52:01.317Z,825.00
2024-01-11T07:53:01.370Z,833.00
2024-01-11T07:54:01.406Z,850.00
2024-01-11T07:55:01.323Z,913.00
2024-01-11T07:56:01.293Z,939.00
2024-01-11T07:57:01.807Z,962.00
2024-01-11T07:58:01.375Z,1038.00
2024-01-11T07:59:01.441Z,1073.00
2024-01-11T08:00:01.369Z,1088.00
2024-01-11T08:01:01.360Z,1158.00
2024-01-11T08:02:01.893Z,1175.00
2024-01-11T08:03:01.496Z,1188.00
2024-01-11T08:04:01.536Z,1212.00
2024-01-11T08:05:01.530Z,1224.00
2024-01-11T08:06:01.599Z,1246.00
2024-01-11T08:07:01.562Z,1274.00
2024-01-11T08:08:01.644Z,1310.00
2024-01-11T08:09:01.669Z,1349.00
2024-01-11T08:10:01.666Z,1424.00
2024-01-11T08:11:02.645Z,1439.00
2024-01-11T08:12:01.635Z,1437.00
2024-01-11T08:13:01.558Z,1442.00
2024-01-11T08:14:01.613Z,1446.00
2024-01-11T08:15:01.530Z,1453.00
2024-01-11T08:16:01.481Z,1464.00
2024-01-11T08:17:01.510Z,1480.00
2024-01-11T08:18:01.467Z,1500.00
2024-01-11T08:19:01.490Z,1521.00
2024-01-11T08:20:01.472Z,1545.00
2024-01-11T08:21:01.402Z,1592.00
2024-01-11T08:22:01.807Z,1612.00
2024-01-11T08:23:01.338Z,1611.00
2024-01-11T08:24:03.427Z,1615.00
2024-01-11T08:25:01.303Z,1620.00
2024-01-11T08:26:01.341Z,1630.00
2024-01-11T08:27:01.230Z,1640.00
2024-01-11T08:28:01.248Z,1650.00
2024-01-11T08:29:01.231Z,1658.00
2024-01-11T08:30:01.327Z,1665.00
2024-01-11T08:31:01.367Z,1679.00
2024-01-11T08:32:02.045Z,1686.00
2024-01-11T08:33:01.395Z,1699.00
2024-01-11T08:34:01.467Z,1708.00
2024-01-11T08:35:01.498Z,1723.00
2024-01-11T08:36:01.315Z,1733.00
2024-01-11T08:37:01.319Z,1742.00
2024-01-11T08:38:01.430Z,1748.00
2024-01-11T08:39:01.280Z,1763.00
2024-01-11T08:40:01.305Z,1783.00
2024-01-11T08:41:01.365Z,1792.00
2024-01-11T08:42:01.320Z,1805.00
2024-01-11T08:43:01.327Z,1818.00
2024-01-11T08:44:01.293Z,1850.00
2024-01-11T08:45:01.697Z,1860.00
2024-01-11T08:46:01.276Z,2240.00
2024-01-11T08:47:01.307Z,2579.00
2024-01-11T08:48:01.471Z,1983.00
2024-01-11T08:49:01.291Z,1969.00
2024-01-11T08:50:01.273Z,1971.00
2024-01-11T08:51:01.907Z,1982.00
2024-01-11T08:52:01.543Z,1998.00
2024-01-11T08:53:01.337Z,2009.00
2024-01-11T08:54:01.288Z,2017.00
2024-01-11T08:55:01.298Z,2019.00
2024-01-11T08:56:01.256Z,2023.00
2024-01-11T08:57:01.173Z,2026.00
2024-01-11T08:58:01.181Z,2033.00
2024-01-11T08:59:01.219Z,2044.00
2024-01-11T09:00:01.225Z,2054.00
2024-01-11T09:01:01.217Z,2061.00
2024-01-11T09:02:09.988Z,2062.00
2024-01-11T09:03:02.280Z,2064.00
2024-01-11T09:04:01.183Z,2068.00
2024-01-11T09:05:01.180Z,2072.00
2024-01-11T09:06:01.252Z,2072.00
2024-01-11T09:07:01.375Z,2072.00
2024-01-11T09:08:01.143Z,2082.00
2024-01-11T09:09:01.050Z,2071.00
2024-01-11T09:10:00.996Z,2061.00
2024-01-11T09:11:01.044Z,2055.00
2024-01-11T09:12:01.341Z,2057.00
2024-01-11T09:13:00.978Z,2058.00
2024-01-11T09:14:00.929Z,2062.00
2024-01-11T09:15:00.887Z,2061.00
2024-01-11T09:16:00.818Z,2065.00
2024-01-11T09:17:00.816Z,2064.00
2024-01-11T09:18:01.022Z,2062.00
2024-01-11T09:19:00.832Z,2059.00
2024-01-11T09:20:01.111Z,2056.00
2024-01-11T09:21:00.793Z,2053.00
2024-01-11T09:22:00.797Z,2052.00
2024-01-11T09:23:00.829Z,2054.00
2024-01-11T09:24:00.810Z,2052.00
2024-01-11T09:25:00.878Z,2045.00
2024-01-11T09:26:00.909Z,2043.00
2024-01-11T09:27:01.322Z,2048.00
2024-01-11T09:28:00.851Z,2048.00
2024-01-11T09:29:00.941Z,2049.00
2024-01-11T09:30:00.910Z,2045.00
2024-01-11T09:31:01.092Z,2044.00
2024-01-11T09:32:01.257Z,2043.00
2024-01-11T09:33:01.103Z,2043.00
2024-01-11T09:34:00.981Z,2043.00
2024-01-11T09:35:01.086Z,2045.00
2024-01-11T09:36:01.050Z,2045.00
2024-01-11T09:37:01.058Z,2036.00
2024-01-11T09:38:01.157Z,2032.00
2024-01-11T09:39:01.191Z,2038.00
2024-01-11T09:40:01.126Z,2039.00
2024-01-11T09:41:01.160Z,2040.00
2024-01-11T09:42:01.332Z,2043.00
2024-01-11T09:43:01.207Z,2047.00
2024-01-11T09:44:01.298Z,2054.00
2024-01-11T09:45:01.273Z,2055.00
2024-01-11T09:46:01.334Z,2017.00
2024-01-11T09:47:01.874Z,2008.00
2024-01-11T09:48:01.404Z,1988.00
2024-01-11T09:49:01.382Z,1974.00
2024-01-11T09:50:01.388Z,1962.00
2024-01-11T09:51:01.387Z,1979.00
2024-01-11T09:52:01.831Z,1983.00
2024-01-11T09:53:01.402Z,1986.00
2024-01-11T09:54:01.368Z,1990.00
2024-01-11T09:55:01.397Z,1991.00
2024-01-11T09:56:01.441Z,1985.00
2024-01-11T09:57:01.806Z,1969.00
2024-01-11T09:58:01.398Z,1968.00
2024-01-11T09:59:01.369Z,1864.00
2024-01-11T10:00:01.446Z,1883.00
2024-01-11T10:01:01.387Z,1903.00
2024-01-11T10:02:01.898Z,1909.00
2024-01-11T10:03:01.378Z,1916.00
2024-01-11T10:04:01.390Z,1923.00
2024-01-11T10:05:01.395Z,1927.00
2024-01-11T10:06:01.429Z,1930.00
2024-01-11T10:07:01.875Z,1935.00
2024-01-11T10:08:01.355Z,1938.00
2024-01-11T10:09:01.339Z,1935.00
2024-01-11T10:10:01.430Z,1931.00
2024-01-11T10:11:01.400Z,1931.00
2024-01-11T10:12:01.851Z,1934.00
2024-01-11T10:13:01.368Z,1944.00
2024-01-11T10:14:01.466Z,1950.00
2024-01-11T10:15:01.394Z,1949.00
2024-01-11T10:16:01.362Z,1947.00
2024-01-11T10:17:01.905Z,1945.00
2024-01-11T10:18:01.489Z,1948.00
2024-01-11T10:19:01.482Z,1956.00
2024-01-11T10:20:01.466Z,1962.00
2024-01-11T10:21:01.407Z,1964.00
2024-01-11T10:22:01.321Z,1972.00
2024-01-11T10:23:01.352Z,1972.00
2024-01-11T10:24:01.321Z,1977.00
2024-01-11T10:25:01.282Z,1984.00
2024-01-11T10:26:01.337Z,1986.00
2024-01-11T10:27:01.348Z,1991.00
2024-01-11T10:28:01.315Z,1991.00
2024-01-11T10:29:01.466Z,1993.00
2024-01-11T10:30:01.323Z,1988.00
2024-01-11T10:31:01.314Z,1980.00
2024-01-11T10:32:01.461Z,1974.00
2024-01-11T10:33:01.460Z,1973.00
2024-01-11T10:34:01.259Z,1966.00
2024-01-11T10:35:02.801Z,1966.00
2024-01-11T10:36:01.200Z,1964.00
2024-01-11T10:37:01.168Z,1970.00
2024-01-11T10:38:01.212Z,1981.00
2024-01-11T10:39:01.208Z,1979.00
2024-01-11T10:40:01.171Z,1981.00
2024-01-11T10:41:01.164Z,1985.00
2024-01-11T10:42:04.103Z,1987.00
2024-01-11T10:43:01.094Z,1994.00
2024-01-11T10:44:01.083Z,1995.00
2024-01-11T10:45:01.036Z,2004.00
2024-01-11T10:46:01.074Z,2052.00
2024-01-11T10:47:01.389Z,2073.00
2024-01-11T10:48:03.867Z,2054.00
2024-01-11T10:49:00.991Z,2023.00
2024-01-11T10:50:00.959Z,2008.00
2024-01-11T10:51:00.832Z,2006.00
2024-01-11T10:52:00.847Z,2059.00
2024-01-11T10:53:00.834Z,2076.00
2024-01-11T10:54:02.324Z,2101.00
2024-01-11T10:55:00.745Z,2201.00
2024-01-11T10:56:00.806Z,2242.00
2024-01-11T10:57:00.839Z,2268.00
2024-01-11T10:58:00.710Z,2298.00
2024-01-11T10:59:00.740Z,2348.00
2024-01-11T11:00:00.582Z,2372.00
2024-01-11T11:01:00.599Z,2397.00
2024-01-11T11:02:00.708Z,2417.00
2024-01-11T11:03:00.689Z,2429.00
2024-01-11T11:04:00.497Z,2437.00
2024-01-11T11:05:00.636Z,2446.00
2024-01-11T11:06:00.552Z,2465.00
2024-01-11T11:07:00.379Z,2544.00
2024-01-11T11:08:00.366Z,2550.00
2024-01-11T11:09:00.336Z,2554.00
2024-01-11T11:10:00.303Z,2563.00
2024-01-11T11:11:00.262Z,2572.00
2024-01-11T11:12:00.351Z,2577.00
2024-01-11T11:13:00.218Z,2588.00
2024-01-11T11:14:00.239Z,2604.00
2024-01-11T11:15:00.305Z,2617.00
2024-01-11T11:16:02.045Z,2627.00
2024-01-11T11:17:00.305Z,2639.00
2024-01-11T11:18:00.424Z,2653.00
2024-01-11T11:19:00.516Z,2663.00
2024-01-11T11:20:00.391Z,2673.00
2024-01-11T11:21:00.396Z,2686.00
2024-01-11T11:22:00.874Z,2695.00
2024-01-11T11:23:00.585Z,2703.00
2024-01-11T11:24:00.480Z,2712.00
2024-01-11T11:25:00.485Z,2724.00
2024-01-11T11:26:00.639Z,2734.00
2024-01-11T11:27:00.878Z,2743.00
2024-01-11T11:28:01.155Z,2753.00
2024-01-11T11:29:00.720Z,2763.00
2024-01-11T11:30:00.673Z,2781.00
2024-01-11T11:31:00.647Z,2792.00
2024-01-11T11:32:00.783Z,2799.00
2024-01-11T11:33:00.786Z,2807.00
2024-01-11T11:34:02.776Z,2811.00
2024-01-11T11:35:00.732Z,2816.00
2024-01-11T11:36:00.661Z,2827.00
2024-01-11T11:37:00.637Z,2836.00
2024-01-11T11:38:00.642Z,2845.00
2024-01-11T11:39:00.571Z,2857.00
2024-01-11T11:40:01.945Z,2866.00
2024-01-11T11:41:00.532Z,2883.00
2024-01-11T11:42:00.489Z,2890.00
2024-01-11T11:43:00.436Z,2902.00
2024-01-11T11:44:00.425Z,2910.00
2024-01-11T11:45:00.389Z,2922.00
2024-01-11T11:46:02.998Z,2934.00
2024-01-11T11:47:00.324Z,2861.00
2024-01-11T11:48:00.418Z,2848.00
2024-01-11T11:49:00.377Z,2843.00
2024-01-11T11:50:00.269Z,2854.00
2024-01-11T11:51:00.204Z,2866.00
2024-01-11T11:52:00.201Z,2837.00
2024-01-11T11:53:00.163Z,2809.00
2024-01-11T11:54:00.192Z,2818.00
2024-01-11T11:55:00.079Z,2840.00
2024-01-11T11:56:00.068Z,2856.00
2024-01-11T11:57:00.422Z,2873.00
2024-01-11T11:57:59.987Z,2894.00
2024-01-11T11:58:59.926Z,2913.00
2024-01-11T11:59:59.918Z,2975.00
2024-01-11T12:00:59.904Z,2962.00
2024-01-11T12:01:59.841Z,2988.00
2024-01-11T12:02:59.849Z,3017.00
2024-01-11T12:03:59.755Z,3036.00
2024-01-11T12:04:59.761Z,3051.00
2024-01-11T12:05:59.725Z,3065.00
2024-01-11T12:06:59.724Z,3079.00
2024-01-11T12:07:59.605Z,3091.00
2024-01-11T12:08:59.582Z,3098.00
2024-01-11T12:09:59.522Z,3105.00
2024-01-11T12:10:59.522Z,3110.00
2024-01-11T12:12:07.465Z,3119.00
2024-01-11T12:13:00.424Z,3125.00
2024-01-11T12:13:59.548Z,3129.00
2024-01-11T12:14:59.353Z,3138.00
2024-01-11T12:15:59.347Z,3144.00
2024-01-11T12:16:59.312Z,3146.00
2024-01-11T12:17:59.391Z,3151.00
2024-01-11T12:18:59.390Z,3148.00
2024-01-11T12:19:59.221Z,3144.00